createdAt,value
2023-04-09T00:01:30.774Z,97934.13
2023-04-09T00:03:58.259Z,97927.03
2023-04-09T00:06:26.006Z,97922.91
2023-04-09T00:08:53.468Z,97926.84
2023-04-09T00:11:21.682Z,97922.28
2023-04-09T00:13:48.932Z,97926.41
2023-04-09T00:16:16.147Z,97927.47
2023-04-09T00:18:43.299Z,97931.19
2023-04-09T00:21:10.645Z,97932.53
2023-04-09T00:23:37.872Z,97929.28
2023-04-09T00:26:05.382Z,97937.72
2023-04-09T00:28:32.533Z,97935.81
2023-04-09T00:30:59.843Z,97939.25
2023-04-09T00:33:27.296Z,97930.91
2023-04-09T00:35:54.731Z,97933.63
2023-04-09T00:38:21.940Z,97926.22
2023-04-09T00:40:51.316Z,97938.00
2023-04-09T00:43:19.001Z,97941.88
2023-04-09T00:45:46.438Z,97932.28
2023-04-09T00:48:16.010Z,97928.50
2023-04-09T00:50:43.558Z,97936.25
2023-04-09T00:53:12.318Z,97934.38
2023-04-09T00:55:42.851Z,97932.66
2023-04-09T00:58:10.128Z,97934.25
2023-04-09T01:00:37.673Z,97933.56
2023-04-09T01:03:07.054Z,97928.50
2023-04-09T01:06:17.967Z,97929.69
2023-04-09T01:08:55.526Z,97932.75
2023-04-09T01:12:04.779Z,97928.88
2023-04-09T01:15:06.327Z,97933.63
2023-04-09T01:17:59.343Z,97924.63
2023-04-09T01:20:42.312Z,97936.50
2023-04-09T01:23:55.523Z,97940.63
2023-04-09T01:26:57.290Z,97945.78
2023-04-09T01:29:33.344Z,97947.31
2023-04-09T01:32:04.256Z,97945.53
2023-04-09T01:34:31.979Z,97941.81
2023-04-09T01:37:03.459Z,97936.06
2023-04-09T01:39:31.512Z,97940.03
2023-04-09T01:41:59.126Z,97946.41
2023-04-09T01:44:27.685Z,97940.34
2023-04-09T01:46:55.205Z,97938.88
2023-04-09T01:49:23.426Z,97936.53
2023-04-09T01:51:51.053Z,97943.03
2023-04-09T01:54:18.285Z,97951.34
2023-04-09T01:56:48.094Z,97953.03
2023-04-09T01:59:16.142Z,97944.53
2023-04-09T02:01:53.464Z,97950.22
2023-04-09T02:04:30.912Z,97945.31
2023-04-09T02:07:23.793Z,97947.53
2023-04-09T02:09:54.744Z,97941.41
2023-04-09T02:12:23.191Z,97952.63
2023-04-09T02:14:52.705Z,97961.41
2023-04-09T02:17:20.367Z,97957.03
2023-04-09T02:19:48.387Z,97957.28
2023-04-09T02:22:16.954Z,97946.22
2023-04-09T02:24:44.380Z,97949.88
2023-04-09T02:27:11.660Z,97948.41
2023-04-09T02:29:41.896Z,97949.69
2023-04-09T02:32:09.112Z,97941.91
2023-04-09T02:34:36.352Z,97946.44
2023-04-09T02:37:03.702Z,97936.88
2023-04-09T02:39:30.944Z,97939.94
2023-04-09T02:41:58.154Z,97941.78
2023-04-09T02:44:27.697Z,97934.31
2023-04-09T02:46:55.896Z,97937.50
2023-04-09T02:49:23.383Z,97937.06
2023-04-09T02:51:50.675Z,97930.88
2023-04-09T02:54:18.058Z,97937.84
2023-04-09T02:56:45.312Z,97946.66
2023-04-09T02:59:12.639Z,97943.69
2023-04-09T03:01:39.970Z,97945.19
2023-04-09T03:04:07.384Z,97937.38
2023-04-09T03:06:34.742Z,97940.69
2023-04-09T03:09:01.950Z,97941.78
2023-04-09T03:11:29.221Z,97942.66
2023-04-09T03:13:56.497Z,97933.50
2023-04-09T03:16:26.521Z,97939.22
2023-04-09T03:18:54.191Z,97935.88
2023-04-09T03:21:21.665Z,97941.91
2023-04-09T03:23:50.972Z,97938.13
2023-04-09T03:26:18.242Z,97934.69
2023-04-09T03:28:48.716Z,97932.03
2023-04-09T03:31:17.130Z,97935.47
2023-04-09T03:33:45.802Z,97930.47
2023-04-09T03:36:14.021Z,97926.47
2023-04-09T03:39:01.799Z,97922.31
2023-04-09T03:41:32.681Z,97929.69
2023-04-09T03:44:03.694Z,97933.69
2023-04-09T03:46:37.459Z,97934.53
2023-04-09T03:49:05.337Z,97939.13
2023-04-09T03:51:40.337Z,97939.78
2023-04-09T03:54:08.348Z,97944.53
2023-04-09T03:56:35.987Z,97940.13
2023-04-09T03:59:06.610Z,97947.16
2023-04-09T04:01:39.050Z,97952.13
2023-04-09T04:04:06.397Z,97952.50
2023-04-09T04:06:38.189Z,97958.97
2023-04-09T04:09:28.059Z,97959.81
2023-04-09T04:11:59.066Z,97950.94
2023-04-09T04:14:40.332Z,97957.72
2023-04-09T04:17:18.074Z,97952.59
2023-04-09T04:19:45.667Z,97964.28
2023-04-09T04:22:12.904Z,97966.06
2023-04-09T04:24:43.115Z,97969.91
2023-04-09T04:27:10.404Z,97969.69
2023-04-09T04:29:37.718Z,97974.53
2023-04-09T04:32:13.270Z,97967.81
2023-04-09T04:34:40.799Z,97973.06
2023-04-09T04:37:20.228Z,97974.66
2023-04-09T04:39:47.463Z,97977.06
2023-04-09T04:42:17.166Z,97976.59
2023-04-09T04:44:45.792Z,97980.47
2023-04-09T04:47:33.162Z,97981.88
2023-04-09T04:50:01.376Z,97978.53
2023-04-09T04:52:30.198Z,97986.06
2023-04-09T04:54:57.642Z,97981.38
2023-04-09T04:57:25.840Z,97986.97
2023-04-09T04:59:53.926Z,97988.97
2023-04-09T05:02:22.057Z,97985.41
2023-04-09T05:05:09.457Z,97988.03
2023-04-09T05:07:42.528Z,97990.78
2023-04-09T05:10:10.373Z,97996.56
2023-04-09T05:12:41.450Z,97988.81
2023-04-09T05:15:10.091Z,97988.66
2023-04-09T05:17:38.726Z,97996.16
2023-04-09T05:20:08.496Z,97993.97
2023-04-09T05:22:46.436Z,98000.78
2023-04-09T05:25:16.214Z,98003.22
2023-04-09T05:27:44.042Z,98004.56
2023-04-09T05:30:11.742Z,98002.81
2023-04-09T05:32:40.971Z,97998.38
2023-04-09T05:35:08.952Z,98003.28
2023-04-09T05:37:40.649Z,97999.41
2023-04-09T05:40:08.882Z,98004.47
2023-04-09T05:42:36.322Z,98009.59
2023-04-09T05:45:10.376Z,98007.31
2023-04-09T05:47:39.106Z,98017.28
2023-04-09T05:50:15.340Z,98012.75
2023-04-09T05:52:43.015Z,98008.84
2023-04-09T05:55:12.190Z,98008.25
2023-04-09T05:57:45.625Z,98009.63
2023-04-09T06:00:14.101Z,98009.59
2023-04-09T06:02:45.513Z,98019.50
2023-04-09T06:05:12.925Z,98020.81
2023-04-09T06:07:40.180Z,98025.75
2023-04-09T06:10:08.588Z,98027.47
2023-04-09T06:12:36.348Z,98031.56
2023-04-09T06:15:07.950Z,98033.38
2023-04-09T06:17:35.342Z,98033.59
2023-04-09T06:20:02.754Z,98036.59
2023-04-09T06:22:30.076Z,98039.88
2023-04-09T06:24:57.303Z,98035.72
2023-04-09T06:27:24.611Z,98035.94
2023-04-09T06:29:51.800Z,98035.06
2023-04-09T06:32:18.989Z,98039.38
2023-04-09T06:34:46.423Z,98039.22
2023-04-09T06:37:13.666Z,98039.94
2023-04-09T06:39:47.601Z,98041.25
2023-04-09T06:42:26.633Z,98042.72
2023-04-09T06:45:11.053Z,98046.88
2023-04-09T06:47:38.404Z,98048.97
2023-04-09T06:50:06.544Z,98047.78
2023-04-09T06:52:33.830Z,98053.59
2023-04-09T06:55:01.384Z,98051.44
2023-04-09T06:57:28.851Z,98054.25
2023-04-09T06:59:56.640Z,98061.31
2023-04-09T07:02:24.193Z,98066.03
2023-04-09T07:04:51.673Z,98063.97
2023-04-09T07:07:20.879Z,98050.66
2023-04-09T07:09:49.017Z,98050.56
2023-04-09T07:12:26.993Z,98057.59
2023-04-09T07:15:03.833Z,98061.56
2023-04-09T07:17:35.460Z,98054.34
2023-04-09T07:20:02.859Z,98059.56
2023-04-09T07:22:31.211Z,98060.56
2023-04-09T07:24:58.578Z,98060.84
2023-04-09T07:27:29.294Z,98060.88
2023-04-09T07:29:59.870Z,98064.84
2023-04-09T07:32:31.006Z,98061.16
2023-04-09T07:34:59.604Z,98057.81
2023-04-09T07:37:27.300Z,98066.09
2023-04-09T07:39:54.899Z,98061.44
2023-04-09T07:42:22.632Z,98061.28
2023-04-09T07:44:49.963Z,98061.69
2023-04-09T07:47:17.213Z,98062.41
2023-04-09T07:49:44.598Z,98059.91
2023-04-09T07:52:12.173Z,98056.00
2023-04-09T07:54:39.476Z,98068.94
2023-04-09T07:57:07.051Z,98083.28
2023-04-09T07:59:37.548Z,98079.59
2023-04-09T08:02:04.833Z,98079.22
2023-04-09T08:04:32.626Z,98075.97
2023-04-09T08:07:00.154Z,98064.75
2023-04-09T08:09:27.516Z,98071.63
2023-04-09T08:11:54.916Z,98069.81
2023-04-09T08:14:22.129Z,98067.69
2023-04-09T08:16:50.549Z,98068.63
2023-04-09T08:19:19.158Z,98068.66
2023-04-09T08:21:48.977Z,98068.63
2023-04-09T08:24:16.638Z,98067.28
2023-04-09T08:26:44.393Z,98063.44
2023-04-09T08:29:13.751Z,98064.75
2023-04-09T08:31:42.059Z,98069.28
2023-04-09T08:34:09.551Z,98070.06
2023-04-09T08:36:37.131Z,98065.03
2023-04-09T08:39:04.611Z,98064.63
2023-04-09T08:41:32.044Z,98067.41
2023-04-09T08:43:59.895Z,98074.59
2023-04-09T08:46:28.171Z,98071.91
2023-04-09T08:48:56.195Z,98072.72
2023-04-09T08:51:25.136Z,98072.72
2023-04-09T08:54:10.652Z,98067.22
2023-04-09T08:56:37.888Z,98075.22
2023-04-09T08:59:05.606Z,98074.91
2023-04-09T09:01:33.543Z,98076.81
2023-04-09T09:04:04.391Z,98080.59
2023-04-09T09:06:38.325Z,98068.63
2023-04-09T09:09:08.705Z,98073.75
2023-04-09T09:11:57.040Z,98060.59
2023-04-09T09:14:24.380Z,98066.28
2023-04-09T09:16:57.905Z,98074.03
2023-04-09T09:19:25.330Z,98079.25
2023-04-09T09:22:08.089Z,98076.69
2023-04-09T09:24:50.726Z,98078.41
2023-04-09T09:27:50.860Z,98082.97
2023-04-09T09:30:27.210Z,98075.53
2023-04-09T09:33:11.362Z,98077.72
2023-04-09T09:35:55.298Z,98079.34
2023-04-09T09:38:22.617Z,98072.09
2023-04-09T09:40:50.593Z,98066.75
2023-04-09T09:43:17.951Z,98069.19
2023-04-09T09:45:48.350Z,98067.22
2023-04-09T09:48:16.511Z,98056.66
2023-04-09T09:50:46.474Z,98062.19
2023-04-09T09:53:17.554Z,98061.97
2023-04-09T09:55:49.638Z,98063.03
2023-04-09T09:58:23.743Z,98054.31
2023-04-09T10:00:52.870Z,98049.63
2023-04-09T10:03:30.856Z,98052.81
2023-04-09T10:06:01.144Z,98052.81
2023-04-09T10:08:30.521Z,98059.72
2023-04-09T10:10:59.042Z,98057.59
2023-04-09T10:13:40.603Z,98056.72
2023-04-09T10:16:08.993Z,98054.09
2023-04-09T10:18:37.415Z,98050.44
2023-04-09T10:21:12.820Z,98051.47
2023-04-09T10:23:45.161Z,98060.34
2023-04-09T10:26:12.447Z,98052.56
2023-04-09T10:28:40.316Z,98062.69
2023-04-09T10:31:08.880Z,98069.97
2023-04-09T10:33:39.752Z,98066.31
2023-04-09T10:36:13.440Z,98064.34
2023-04-09T10:38:45.709Z,98063.38
2023-04-09T10:41:25.264Z,98061.03
2023-04-09T10:43:52.551Z,98065.59
2023-04-09T10:46:34.251Z,98067.47
2023-04-09T10:49:19.646Z,98055.69
2023-04-09T10:52:06.556Z,98056.31
2023-04-09T10:54:34.316Z,98054.66
2023-04-09T10:57:07.619Z,98046.97
2023-04-09T10:59:55.587Z,98040.34
2023-04-09T11:02:50.006Z,98039.16
2023-04-09T11:05:39.942Z,98042.66
2023-04-09T11:08:09.899Z,98035.47
2023-04-09T11:10:38.840Z,98036.13
2023-04-09T11:13:06.460Z,98028.97
2023-04-09T11:15:37.419Z,98027.16
2023-04-09T11:18:07.092Z,98029.59
2023-04-09T11:20:35.752Z,98020.38
2023-04-09T11:23:03.565Z,98029.19
2023-04-09T11:25:35.691Z,98026.84
2023-04-09T11:28:05.159Z,98027.09
2023-04-09T11:30:34.506Z,98021.81
2023-04-09T11:33:02.722Z,98026.56
2023-04-09T11:35:30.216Z,98017.25
2023-04-09T11:37:57.633Z,98026.78
2023-04-09T11:40:29.242Z,98015.91
2023-04-09T11:42:57.212Z,98016.72
2023-04-09T11:45:29.701Z,98021.69
2023-04-09T11:47:57.227Z,98016.44
2023-04-09T11:50:25.117Z,98022.44
2023-04-09T11:52:52.635Z,98023.25
2023-04-09T11:55:38.073Z,98017.03
2023-04-09T11:58:05.350Z,98024.75
2023-04-09T12:00:33.173Z,98022.97
2023-04-09T12:03:04.057Z,98024.84
2023-04-09T12:05:34.898Z,98031.44
2023-04-09T12:08:08.952Z,98033.31
2023-04-09T12:10:38.817Z,98026.53
2023-04-09T12:13:11.070Z,98031.31
2023-04-09T12:15:43.372Z,98032.88
2023-04-09T12:18:12.703Z,98036.09
2023-04-09T12:20:44.189Z,98030.28
2023-04-09T12:23:12.803Z,98028.19
2023-04-09T12:25:45.452Z,98028.63
2023-04-09T12:28:15.981Z,98029.22
2023-04-09T12:30:43.666Z,98027.13
2023-04-09T12:33:11.559Z,98023.91
2023-04-09T12:35:39.190Z,98037.19
2023-04-09T12:38:06.818Z,98032.16
2023-04-09T12:40:36.366Z,98035.59
2023-04-09T12:43:04.268Z,98027.63
2023-04-09T12:45:32.148Z,98037.69
2023-04-09T12:47:59.480Z,98033.72
2023-04-09T12:50:26.879Z,98029.72
2023-04-09T12:52:54.372Z,98027.38
2023-04-09T12:55:22.243Z,98033.72
2023-04-09T12:57:51.416Z,98026.50
2023-04-09T13:00:18.755Z,98033.34
2023-04-09T13:02:46.628Z,98034.88
2023-04-09T13:05:14.021Z,98021.53
2023-04-09T13:07:43.010Z,98032.47
2023-04-09T13:10:11.271Z,98027.50
2023-04-09T13:12:38.643Z,98027.16
2023-04-09T13:15:06.817Z,98026.25
2023-04-09T13:17:34.174Z,98030.84
2023-04-09T13:20:01.773Z,98030.88
2023-04-09T13:22:29.169Z,98028.63
2023-04-09T13:24:56.781Z,98026.88
2023-04-09T13:27:24.147Z,98032.50
2023-04-09T13:29:51.482Z,98024.56
2023-04-09T13:32:21.096Z,98022.75
2023-04-09T13:34:48.712Z,98015.59
2023-04-09T13:37:16.590Z,98023.50
2023-04-09T13:39:44.890Z,98019.94
2023-04-09T13:42:14.147Z,98020.03
2023-04-09T13:44:44.842Z,98025.19
2023-04-09T13:47:13.673Z,98023.13
2023-04-09T13:49:42.492Z,98023.72
2023-04-09T13:52:10.821Z,98017.91
2023-04-09T13:54:38.466Z,98024.53
2023-04-09T13:57:05.752Z,98016.78
2023-04-09T13:59:32.923Z,98015.09
2023-04-09T14:02:00.512Z,98017.50
2023-04-09T14:04:27.962Z,98017.00
2023-04-09T14:06:57.534Z,98017.53
2023-04-09T14:09:24.871Z,98025.16
2023-04-09T14:11:52.201Z,98012.91
2023-04-09T14:14:19.994Z,98013.41
2023-04-09T14:16:48.469Z,98012.88
2023-04-09T14:19:15.984Z,98017.34
2023-04-09T14:21:43.327Z,98008.41
2023-04-09T14:24:10.753Z,98009.78
2023-04-09T14:26:38.145Z,98007.66
2023-04-09T14:29:05.329Z,98001.03
2023-04-09T14:31:32.617Z,98000.50
2023-04-09T14:33:59.967Z,97997.16
2023-04-09T14:36:27.401Z,98003.44
2023-04-09T14:38:57.359Z,97995.56
2023-04-09T14:41:24.989Z,97997.31
2023-04-09T14:43:52.381Z,97990.38
2023-04-09T14:46:20.312Z,97986.72
2023-04-09T14:48:47.711Z,97988.47
2023-04-09T14:51:15.383Z,97982.22
2023-04-09T14:53:43.169Z,97989.63
2023-04-09T14:56:10.568Z,97994.03
2023-04-09T14:58:38.142Z,97991.38
2023-04-09T15:01:05.956Z,97984.97
2023-04-09T15:03:33.320Z,97989.00
2023-04-09T15:06:00.774Z,97987.69
2023-04-09T15:08:28.026Z,97996.13
2023-04-09T15:10:55.262Z,97993.53
2023-04-09T15:13:22.651Z,97992.03
2023-04-09T15:15:50.422Z,97997.56
2023-04-09T15:18:18.685Z,97994.94
2023-04-09T15:20:46.933Z,97991.81
2023-04-09T15:23:14.163Z,97996.06
2023-04-09T15:25:41.526Z,97996.31
2023-04-09T15:28:08.770Z,97994.22
2023-04-09T15:30:36.214Z,97993.91
2023-04-09T15:33:04.540Z,97996.56
2023-04-09T15:35:31.850Z,97990.72
2023-04-09T15:37:59.204Z,97994.19
2023-04-09T15:40:26.699Z,97993.13
2023-04-09T15:42:58.479Z,97993.63
2023-04-09T15:45:26.929Z,97988.59
2023-04-09T15:47:54.326Z,97992.56
2023-04-09T15:50:21.710Z,97993.38
2023-04-09T15:52:49.197Z,97996.03
2023-04-09T15:55:16.508Z,97997.53
2023-04-09T15:57:46.892Z,97998.88
2023-04-09T16:00:15.537Z,97998.91
2023-04-09T16:02:43.122Z,98004.47
2023-04-09T16:05:10.492Z,97996.03
2023-04-09T16:07:38.408Z,98003.72
2023-04-09T16:10:06.495Z,98010.91
2023-04-09T16:12:33.834Z,98004.81
2023-04-09T16:15:01.497Z,98005.28
2023-04-09T16:17:28.850Z,98007.41
2023-04-09T16:19:56.436Z,98003.41
2023-04-09T16:22:23.732Z,98002.84
2023-04-09T16:24:51.009Z,98006.31
2023-04-09T16:27:18.302Z,98010.28
2023-04-09T16:29:46.257Z,98012.66
2023-04-09T16:32:13.543Z,98009.72
2023-04-09T16:34:41.300Z,98007.63
2023-04-09T16:37:08.650Z,98001.13
2023-04-09T16:39:36.014Z,98007.63
2023-04-09T16:42:03.354Z,98008.59
2023-04-09T16:44:30.877Z,98008.56
2023-04-09T16:46:58.231Z,98008.56
2023-04-09T16:49:25.661Z,98008.28
2023-04-09T16:51:54.061Z,98016.97
2023-04-09T16:54:21.322Z,98022.88
2023-04-09T16:56:48.966Z,98016.13
2023-04-09T16:59:18.512Z,98024.84
2023-04-09T17:01:46.025Z,98018.03
2023-04-09T17:04:13.708Z,98029.75
2023-04-09T17:06:41.201Z,98032.97
2023-04-09T17:09:08.475Z,98033.44
2023-04-09T17:11:37.446Z,98032.22
2023-04-09T17:14:05.837Z,98045.41
2023-04-09T17:16:33.532Z,98043.69
2023-04-09T17:19:00.950Z,98035.28
2023-04-09T17:21:28.209Z,98036.63
2023-04-09T17:23:55.417Z,98034.97
2023-04-09T17:26:22.608Z,98033.84
2023-04-09T17:28:50.769Z,98040.88
2023-04-09T17:31:18.873Z,98043.69
2023-04-09T17:33:49.394Z,98042.34
2023-04-09T17:36:21.245Z,98045.41
2023-04-09T17:38:52.254Z,98043.53
2023-04-09T17:41:19.785Z,98049.50
2023-04-09T17:43:46.955Z,98055.81
2023-04-09T17:46:14.563Z,98064.94
2023-04-09T17:48:41.892Z,98060.94
2023-04-09T17:51:15.112Z,98061.72
2023-04-09T17:53:42.871Z,98068.66
2023-04-09T17:56:18.073Z,98068.31
2023-04-09T17:58:46.641Z,98072.81
2023-04-09T18:01:14.139Z,98077.38
2023-04-09T18:03:42.772Z,98076.88
2023-04-09T18:06:10.338Z,98078.84
2023-04-09T18:08:37.572Z,98079.19
2023-04-09T18:11:12.846Z,98085.41
2023-04-09T18:13:40.678Z,98093.84
2023-04-09T18:16:12.541Z,98095.25
2023-04-09T18:18:40.054Z,98095.44
2023-04-09T18:21:07.436Z,98097.13
2023-04-09T18:23:34.877Z,98106.91
2023-04-09T18:26:02.481Z,98104.19
2023-04-09T18:28:29.670Z,98103.41
2023-04-09T18:30:57.808Z,98103.41
2023-04-09T18:33:26.682Z,98110.63
2023-04-09T18:35:54.005Z,98112.16
2023-04-09T18:38:21.751Z,98111.56
2023-04-09T18:40:48.996Z,98118.84
2023-04-09T18:43:16.393Z,98120.44
2023-04-09T18:45:43.570Z,98120.13
2023-04-09T18:48:11.147Z,98126.97
2023-04-09T18:50:38.482Z,98129.53
2023-04-09T18:53:07.074Z,98127.53
2023-04-09T18:55:38.158Z,98128.09
2023-04-09T18:58:12.859Z,98138.09
2023-04-09T19:00:40.190Z,98134.03
2023-04-09T19:03:08.458Z,98133.69
2023-04-09T19:05:36.268Z,98140.25
2023-04-09T19:08:05.750Z,98136.75
2023-04-09T19:10:33.004Z,98136.41
2023-04-09T19:13:00.450Z,98136.91
2023-04-09T19:15:29.450Z,98136.00
2023-04-09T19:17:57.484Z,98128.41
2023-04-09T19:20:24.845Z,98136.03
2023-04-09T19:22:54.588Z,98142.50
2023-04-09T19:25:23.220Z,98139.84
2023-04-09T19:27:54.368Z,98135.78
2023-04-09T19:30:21.807Z,98139.09
2023-04-09T19:32:49.277Z,98137.38
2023-04-09T19:35:17.003Z,98144.91
2023-04-09T19:37:44.936Z,98146.72
2023-04-09T19:40:15.798Z,98146.50
2023-04-09T19:42:43.436Z,98150.16
2023-04-09T19:45:11.497Z,98146.78
2023-04-09T19:47:38.870Z,98154.78
2023-04-09T19:50:06.867Z,98156.47
2023-04-09T19:52:34.151Z,98157.19
2023-04-09T19:55:02.084Z,98157.28
2023-04-09T19:57:31.708Z,98149.22
2023-04-09T19:59:59.144Z,98155.44
2023-04-09T20:02:26.942Z,98156.66
2023-04-09T20:04:54.644Z,98160.78
2023-04-09T20:07:22.063Z,98158.25
2023-04-09T20:09:49.726Z,98156.38
2023-04-09T20:12:17.226Z,98150.88
2023-04-09T20:14:44.630Z,98151.19
2023-04-09T20:17:12.158Z,98152.94
2023-04-09T20:19:39.518Z,98164.41
2023-04-09T20:22:06.905Z,98155.91
2023-04-09T20:24:35.395Z,98151.81
2023-04-09T20:27:03.910Z,98155.91
2023-04-09T20:29:31.214Z,98155.28
2023-04-09T20:31:58.601Z,98154.22
2023-04-09T20:34:28.663Z,98157.78
2023-04-09T20:36:56.722Z,98156.22
2023-04-09T20:39:27.445Z,98157.03
2023-04-09T20:41:56.685Z,98157.91
2023-04-09T20:44:24.521Z,98162.28
2023-04-09T20:46:52.007Z,98164.50
2023-04-09T20:49:19.333Z,98161.25
2023-04-09T20:51:46.666Z,98163.66
2023-04-09T20:54:13.944Z,98165.94
2023-04-09T20:56:41.585Z,98171.56
2023-04-09T20:59:08.890Z,98166.00
2023-04-09T21:01:36.377Z,98170.59
2023-04-09T21:04:04.056Z,98168.50
2023-04-09T21:06:31.421Z,98163.91
2023-04-09T21:08:59.764Z,98155.94
2023-04-09T21:11:27.255Z,98159.66
2023-04-09T21:13:55.558Z,98162.06
2023-04-09T21:16:23.349Z,98166.75
2023-04-09T21:18:51.033Z,98171.91
2023-04-09T21:21:18.703Z,98175.00
2023-04-09T21:23:46.081Z,98174.59
2023-04-09T21:26:14.178Z,98167.97
2023-04-09T21:28:41.561Z,98170.91
2023-04-09T21:31:13.230Z,98180.00
2023-04-09T21:33:40.622Z,98174.75
2023-04-09T21:36:09.156Z,98176.00
2023-04-09T21:38:36.461Z,98178.91
2023-04-09T21:41:04.080Z,98176.78
2023-04-09T21:43:31.324Z,98169.56
2023-04-09T21:45:58.758Z,98177.41
2023-04-09T21:48:26.790Z,98184.63
2023-04-09T21:50:54.158Z,98187.59
2023-04-09T21:53:21.514Z,98193.94
2023-04-09T21:55:48.640Z,98184.63
2023-04-09T21:58:15.960Z,98180.75
2023-04-09T22:00:43.264Z,98184.81
2023-04-09T22:03:11.171Z,98183.81
2023-04-09T22:05:38.574Z,98184.09
2023-04-09T22:08:06.218Z,98182.63
2023-04-09T22:10:33.638Z,98185.03
2023-04-09T22:13:01.261Z,98188.06
2023-04-09T22:15:29.096Z,98188.56
2023-04-09T22:17:56.470Z,98183.63
2023-04-09T22:20:26.282Z,98187.63
2023-04-09T22:22:57.220Z,98192.00
2023-04-09T22:25:24.821Z,98182.50
2023-04-09T22:27:53.873Z,98190.50
2023-04-09T22:30:21.993Z,98193.50
2023-04-09T22:32:50.016Z,98183.88
2023-04-09T22:35:18.452Z,98178.75
2023-04-09T22:37:47.034Z,98177.16
2023-04-09T22:40:16.030Z,98181.84
2023-04-09T22:42:46.056Z,98180.69
2023-04-09T22:45:13.935Z,98180.38
2023-04-09T22:47:41.231Z,98185.94
2023-04-09T22:50:09.630Z,98185.97
2023-04-09T22:52:36.831Z,98191.47
2023-04-09T22:55:05.048Z,98190.56
2023-04-09T22:57:32.481Z,98191.34
2023-04-09T22:59:59.702Z,98188.97
2023-04-09T23:02:27.484Z,98187.22
2023-04-09T23:04:54.914Z,98184.38
2023-04-09T23:07:22.116Z,98186.66
2023-04-09T23:09:49.545Z,98186.66
2023-04-09T23:12:16.822Z,98184.09
2023-04-09T23:14:44.068Z,98184.34
2023-04-09T23:17:11.369Z,98189.63
2023-04-09T23:19:38.611Z,98190.75
2023-04-09T23:22:06.662Z,98183.16
2023-04-09T23:24:33.921Z,98189.78
2023-04-09T23:27:01.024Z,98182.38
2023-04-09T23:29:28.232Z,98177.00
2023-04-09T23:31:55.423Z,98170.94
2023-04-09T23:34:22.742Z,98168.78
2023-04-09T23:36:50.082Z,98163.97
2023-04-09T23:39:17.350Z,98163.50
2023-04-09T23:41:44.516Z,98163.34
2023-04-09T23:44:11.737Z,98161.75
2023-04-09T23:46:39.002Z,98156.66
2023-04-09T23:49:06.419Z,98157.25
2023-04-09T23:51:33.615Z,98155.84
2023-04-09T23:54:01.996Z,98147.94
2023-04-09T23:56:29.631Z,98154.59
2023-04-09T23:58:56.858Z,98157.44
